HCJTC SEQM-SEQM
Flight info
| Callsign | HCJTC |
|---|---|
| Flight time | 0h 39m |
| Altitude | 18000 |
| Route | QIT3 QIT DCT LTV |
| Aircraft | SF50/L-BDGRSWY/LB2U2 |
Departure
| Time | 2026-04-28 20:14 |
|---|---|
| Airport | Mariscal Sucre International Airport (SEQM) |
Arrival
| Time | 2026-04-28 20:54 |
|---|---|
| Airport | Mariscal Sucre International Airport (SEQM) |
| Time | Latitude | Longitude | Altitude | Speed | Heading |
|---|---|---|---|---|---|
| 2026-04-28 19:45 | -0.13709 | -78.35714 | 7978 ft | 0 kts | 268° |
| 2026-04-28 20:07 | -0.13713 | -78.35709 | 7978 ft | 6 kts | 95° |
| 2026-04-28 20:08 | -0.13760 | -78.35688 | 7978 ft | 12 kts | 149° |
| 2026-04-28 20:08 | -0.13779 | -78.35603 | 7978 ft | 13 kts | 92° |
| 2026-04-28 20:08 | -0.13819 | -78.35552 | 7978 ft | 11 kts | 179° |
| 2026-04-28 20:08 | -0.13903 | -78.35548 | 7977 ft | 13 kts | 178° |
| 2026-04-28 20:09 | -0.13997 | -78.35544 | 7977 ft | 14 kts | 176° |
| 2026-04-28 20:09 | -0.14098 | -78.35541 | 7978 ft | 15 kts | 178° |
| 2026-04-28 20:09 | -0.14163 | -78.35538 | 7978 ft | 4 kts | 177° |
| 2026-04-28 20:09 | -0.14195 | -78.35536 | 7978 ft | 5 kts | 175° |
| 2026-04-28 20:10 | -0.14232 | -78.35520 | 7978 ft | 7 kts | 142° |
| 2026-04-28 20:10 | -0.14253 | -78.35489 | 7978 ft | 0 kts | 107° |
| 2026-04-28 20:12 | -0.14256 | -78.35464 | 7981 ft | 10 kts | 91° |
| 2026-04-28 20:12 | -0.14249 | -78.35376 | 7977 ft | 7 kts | 61° |
| 2026-04-28 20:12 | -0.14228 | -78.35362 | 7977 ft | 1 kts | 359° |
| 2026-04-28 20:13 | -0.14227 | -78.35362 | 7977 ft | 2 kts | 359° |
| 2026-04-28 20:13 | -0.14040 | -78.35370 | 7982 ft | 51 kts | 357° |
| 2026-04-28 20:14 | -0.13529 | -78.35391 | 7980 ft | 94 kts | 357° |
| 2026-04-28 20:14 | -0.12825 | -78.35416 | 8239 ft | 99 kts | 359° |
| 2026-04-28 20:14 | -0.12155 | -78.35443 | 8603 ft | 98 kts | 359° |
| 2026-04-28 20:14 | -0.11492 | -78.35461 | 8984 ft | 94 kts | 359° |
| 2026-04-28 20:15 | -0.10828 | -78.35496 | 9300 ft | 96 kts | 356° |
| 2026-04-28 20:15 | -0.10163 | -78.35570 | 9632 ft | 97 kts | 356° |
| 2026-04-28 20:15 | -0.09433 | -78.35589 | 9786 ft | 117 kts | 1° |
| 2026-04-28 20:15 | -0.08531 | -78.35609 | 9841 ft | 144 kts | 359° |
| 2026-04-28 20:16 | -0.07438 | -78.35657 | 9977 ft | 170 kts | 358° |
| 2026-04-28 20:16 | -0.06601 | -78.35698 | 10070 ft | 186 kts | 358° |
| 2026-04-28 20:16 | -0.05268 | -78.35750 | 10420 ft | 192 kts | 358° |
| 2026-04-28 20:16 | -0.03929 | -78.35809 | 10856 ft | 194 kts | 359° |
| 2026-04-28 20:17 | -0.02592 | -78.35865 | 11256 ft | 196 kts | 358° |
| 2026-04-28 20:17 | -0.01225 | -78.35919 | 11642 ft | 197 kts | 359° |
| 2026-04-28 20:17 | 0.00158 | -78.35977 | 12016 ft | 199 kts | 358° |
| 2026-04-28 20:17 | 0.01547 | -78.36045 | 12380 ft | 201 kts | 358° |
| 2026-04-28 20:18 | 0.02943 | -78.36111 | 12760 ft | 202 kts | 358° |
| 2026-04-28 20:18 | 0.04351 | -78.36189 | 13140 ft | 204 kts | 358° |
| 2026-04-28 20:18 | 0.05765 | -78.36281 | 13510 ft | 204 kts | 353° |
| 2026-04-28 20:18 | 0.07032 | -78.36931 | 13832 ft | 211 kts | 316° |
| 2026-04-28 20:19 | 0.07660 | -78.38248 | 14167 ft | 216 kts | 278° |
| 2026-04-28 20:19 | 0.07377 | -78.39706 | 14499 ft | 218 kts | 240° |
| 2026-04-28 20:19 | 0.06433 | -78.40892 | 14824 ft | 219 kts | 226° |
| 2026-04-28 20:19 | 0.05385 | -78.41934 | 15144 ft | 220 kts | 221° |
| 2026-04-28 20:20 | 0.04270 | -78.42993 | 15498 ft | 222 kts | 223° |
| 2026-04-28 20:20 | 0.03178 | -78.44089 | 15863 ft | 224 kts | 223° |
| 2026-04-28 20:20 | 0.02080 | -78.45198 | 16214 ft | 225 kts | 223° |
| 2026-04-28 20:20 | 0.00966 | -78.46311 | 16557 ft | 227 kts | 223° |
| 2026-04-28 20:21 | -0.00154 | -78.47428 | 16891 ft | 229 kts | 223° |
| 2026-04-28 20:21 | -0.01285 | -78.48560 | 17201 ft | 231 kts | 222° |
| 2026-04-28 20:21 | -0.02425 | -78.49699 | 17545 ft | 233 kts | 222° |
| 2026-04-28 20:21 | -0.03640 | -78.50728 | 17843 ft | 232 kts | 207° |
| 2026-04-28 20:22 | -0.05137 | -78.51332 | 18007 ft | 236 kts | 189° |
| 2026-04-28 20:22 | -0.06804 | -78.51584 | 18025 ft | 250 kts | 184° |
| 2026-04-28 20:22 | -0.08570 | -78.51861 | 18022 ft | 264 kts | 186° |
| 2026-04-28 20:22 | -0.10173 | -78.52136 | 18021 ft | 273 kts | 186° |
| 2026-04-28 20:23 | -0.12075 | -78.52446 | 18020 ft | 281 kts | 185° |
| 2026-04-28 20:23 | -0.14033 | -78.52756 | 18009 ft | 288 kts | 185° |
| 2026-04-28 20:23 | -0.16027 | -78.53076 | 18006 ft | 293 kts | 186° |
| 2026-04-28 20:23 | -0.18051 | -78.53401 | 18009 ft | 295 kts | 186° |
| 2026-04-28 20:24 | -0.20084 | -78.53729 | 18011 ft | 297 kts | 186° |
| 2026-04-28 20:24 | -0.22129 | -78.54058 | 18008 ft | 299 kts | 186° |
| 2026-04-28 20:24 | -0.24178 | -78.54391 | 18007 ft | 299 kts | 186° |
| 2026-04-28 20:24 | -0.26239 | -78.54719 | 18008 ft | 300 kts | 186° |
| 2026-04-28 20:25 | -0.28301 | -78.55047 | 18003 ft | 300 kts | 186° |
| 2026-04-28 20:25 | -0.30370 | -78.55381 | 18006 ft | 301 kts | 186° |
| 2026-04-28 20:25 | -0.32436 | -78.55714 | 18009 ft | 301 kts | 186° |
| 2026-04-28 20:25 | -0.34517 | -78.56047 | 18007 ft | 302 kts | 186° |
| 2026-04-28 20:26 | -0.36588 | -78.56380 | 18007 ft | 302 kts | 186° |
| 2026-04-28 20:26 | -0.38640 | -78.56711 | 18004 ft | 302 kts | 186° |
| 2026-04-28 20:26 | -0.40743 | -78.57047 | 18006 ft | 302 kts | 186° |
| 2026-04-28 20:26 | -0.42816 | -78.57379 | 18041 ft | 302 kts | 186° |
| 2026-04-28 20:27 | -0.44862 | -78.57707 | 18039 ft | 302 kts | 186° |
| 2026-04-28 20:27 | -0.46940 | -78.58040 | 18019 ft | 303 kts | 186° |
| 2026-04-28 20:27 | -0.49053 | -78.58379 | 17700 ft | 312 kts | 186° |
| 2026-04-28 20:27 | -0.51223 | -78.58725 | 17287 ft | 319 kts | 186° |
| 2026-04-28 20:28 | -0.53432 | -78.59012 | 16859 ft | 320 kts | 181° |
| 2026-04-28 20:28 | -0.55661 | -78.59157 | 16429 ft | 322 kts | 181° |
| 2026-04-28 20:28 | -0.57904 | -78.59297 | 15982 ft | 322 kts | 181° |
| 2026-04-28 20:28 | -0.60110 | -78.59453 | 15793 ft | 310 kts | 182° |
| 2026-04-28 20:29 | -0.61887 | -78.59589 | 15784 ft | 300 kts | 183° |
| 2026-04-28 20:29 | -0.63945 | -78.59733 | 15782 ft | 296 kts | 182° |
| 2026-04-28 20:29 | -0.65996 | -78.59867 | 15785 ft | 295 kts | 182° |
| 2026-04-28 20:29 | -0.68037 | -78.60005 | 15763 ft | 293 kts | 182° |
| 2026-04-28 20:30 | -0.70088 | -78.60154 | 15517 ft | 297 kts | 182° |
| 2026-04-28 20:30 | -0.72152 | -78.60298 | 15261 ft | 297 kts | 182° |
| 2026-04-28 20:30 | -0.74214 | -78.60431 | 14890 ft | 297 kts | 181° |
| 2026-04-28 20:30 | -0.76244 | -78.60534 | 14489 ft | 295 kts | 181° |
| 2026-04-28 20:31 | -0.78287 | -78.60638 | 14100 ft | 292 kts | 182° |
| 2026-04-28 20:31 | -0.80313 | -78.60818 | 13702 ft | 291 kts | 183° |
| 2026-04-28 20:31 | -0.82328 | -78.60952 | 13296 ft | 289 kts | 182° |
| 2026-04-28 20:31 | -0.84328 | -78.61084 | 12900 ft | 287 kts | 183° |
| 2026-04-28 20:32 | -0.86310 | -78.61243 | 12498 ft | 285 kts | 184° |
| 2026-04-28 20:32 | -0.88274 | -78.61404 | 12101 ft | 275 kts | 184° |
| 2026-04-28 20:32 | -0.90087 | -78.61538 | 12051 ft | 256 kts | 183° |
| 2026-04-28 20:32 | -0.91833 | -78.61658 | 12549 ft | 245 kts | 182° |
| 2026-04-28 20:33 | -0.93513 | -78.61702 | 13008 ft | 237 kts | 175° |
| 2026-04-28 20:33 | -0.95067 | -78.61505 | 13700 ft | 217 kts | 169° |
| 2026-04-28 20:33 | -0.96554 | -78.61311 | 13989 ft | 219 kts | 172° |
| 2026-04-28 20:33 | -0.98012 | -78.61115 | 14512 ft | 210 kts | 169° |
| 2026-04-28 20:34 | -0.99462 | -78.60899 | 14874 ft | 212 kts | 169° |
| 2026-04-28 20:34 | -1.00933 | -78.60694 | 15116 ft | 220 kts | 169° |
| 2026-04-28 20:34 | -1.02532 | -78.60589 | 15116 ft | 243 kts | 185° |
| 2026-04-28 20:34 | -1.04150 | -78.61257 | 15116 ft | 264 kts | 215° |
| 2026-04-28 20:35 | -1.05331 | -78.62709 | 15111 ft | 278 kts | 244° |
| 2026-04-28 20:35 | -1.05731 | -78.64612 | 15116 ft | 285 kts | 271° |
| 2026-04-28 20:35 | -1.05234 | -78.66523 | 15114 ft | 289 kts | 298° |
| 2026-04-28 20:35 | -1.03928 | -78.68034 | 15105 ft | 289 kts | 324° |
| 2026-04-28 20:36 | -1.02097 | -78.68808 | 15101 ft | 287 kts | 351° |
| 2026-04-28 20:36 | -1.00133 | -78.68693 | 15099 ft | 285 kts | 17° |
| 2026-04-28 20:36 | -0.98421 | -78.67743 | 15105 ft | 282 kts | 39° |
| 2026-04-28 20:36 | -0.96963 | -78.66436 | 15115 ft | 282 kts | 44° |
| 2026-04-28 20:37 | -0.95552 | -78.65073 | 15115 ft | 282 kts | 45° |
| 2026-04-28 20:37 | -0.94147 | -78.63706 | 15114 ft | 282 kts | 45° |
| 2026-04-28 20:37 | -0.92669 | -78.62422 | 15108 ft | 283 kts | 33° |
| 2026-04-28 20:37 | -0.90823 | -78.61814 | 15392 ft | 275 kts | 10° |
| 2026-04-28 20:38 | -0.89007 | -78.61663 | 16205 ft | 249 kts | 6° |
| 2026-04-28 20:38 | -0.87369 | -78.61581 | 17134 ft | 222 kts | 6° |
| 2026-04-28 20:38 | -0.85811 | -78.61520 | 17369 ft | 232 kts | 6° |
| 2026-04-28 20:38 | -0.84163 | -78.61466 | 17608 ft | 238 kts | 5° |
| 2026-04-28 20:39 | -0.82532 | -78.61416 | 17960 ft | 238 kts | 6° |
| 2026-04-28 20:39 | -0.80861 | -78.61368 | 18111 ft | 243 kts | 6° |
| 2026-04-28 20:39 | -0.79194 | -78.61321 | 18111 ft | 243 kts | 5° |
| 2026-04-28 20:39 | -0.77510 | -78.61277 | 18112 ft | 241 kts | 5° |
| 2026-04-28 20:40 | -0.75821 | -78.61231 | 18113 ft | 251 kts | 5° |
| 2026-04-28 20:40 | -0.74014 | -78.61175 | 18121 ft | 263 kts | 5° |
| 2026-04-28 20:40 | -0.72149 | -78.61114 | 18122 ft | 273 kts | 5° |
| 2026-04-28 20:40 | -0.70229 | -78.61046 | 18110 ft | 279 kts | 5° |
| 2026-04-28 20:41 | -0.68270 | -78.60975 | 18113 ft | 284 kts | 5° |
| 2026-04-28 20:41 | -0.66281 | -78.60902 | 18113 ft | 288 kts | 5° |
| 2026-04-28 20:41 | -0.64269 | -78.60827 | 18111 ft | 291 kts | 5° |
| 2026-04-28 20:41 | -0.62240 | -78.60748 | 18101 ft | 292 kts | 5° |
| 2026-04-28 20:42 | -0.60204 | -78.60669 | 18101 ft | 293 kts | 5° |
| 2026-04-28 20:42 | -0.58166 | -78.60594 | 18087 ft | 293 kts | 5° |
| 2026-04-28 20:42 | -0.56175 | -78.60327 | 18072 ft | 288 kts | 21° |
| 2026-04-28 20:42 | -0.54519 | -78.59299 | 18071 ft | 273 kts | 46° |
| 2026-04-28 20:43 | -0.53489 | -78.57810 | 17768 ft | 250 kts | 64° |
| 2026-04-28 20:43 | -0.52829 | -78.56189 | 17453 ft | 260 kts | 74° |
| 2026-04-28 20:43 | -0.52377 | -78.54392 | 17330 ft | 270 kts | 77° |
| 2026-04-28 20:43 | -0.51890 | -78.52588 | 17279 ft | 270 kts | 73° |
| 2026-04-28 20:44 | -0.51331 | -78.50863 | 17009 ft | 251 kts | 72° |
| 2026-04-28 20:44 | -0.50811 | -78.49257 | 16680 ft | 235 kts | 73° |
| 2026-04-28 20:44 | -0.50341 | -78.47713 | 16359 ft | 231 kts | 74° |
| 2026-04-28 20:44 | -0.49872 | -78.46171 | 16043 ft | 234 kts | 73° |
| 2026-04-28 20:45 | -0.49390 | -78.44611 | 15723 ft | 235 kts | 73° |
| 2026-04-28 20:45 | -0.48887 | -78.43059 | 15394 ft | 234 kts | 68° |
| 2026-04-28 20:45 | -0.48056 | -78.41684 | 15066 ft | 232 kts | 52° |
| 2026-04-28 20:45 | -0.46865 | -78.40596 | 14745 ft | 232 kts | 36° |
| 2026-04-28 20:46 | -0.45430 | -78.39891 | 14426 ft | 230 kts | 21° |
| 2026-04-28 20:46 | -0.43924 | -78.39368 | 14113 ft | 229 kts | 21° |
| 2026-04-28 20:46 | -0.43349 | -78.39161 | 13988 ft | 228 kts | 21° |
| 2026-04-28 20:46 | -0.41770 | -78.38586 | 13650 ft | 227 kts | 21° |
| 2026-04-28 20:47 | -0.40287 | -78.38043 | 13328 ft | 226 kts | 21° |
| 2026-04-28 20:47 | -0.38848 | -78.37546 | 13024 ft | 225 kts | 19° |
| 2026-04-28 20:47 | -0.37358 | -78.37057 | 12714 ft | 224 kts | 20° |
| 2026-04-28 20:47 | -0.35897 | -78.36563 | 12410 ft | 224 kts | 19° |
| 2026-04-28 20:48 | -0.34419 | -78.36076 | 12093 ft | 224 kts | 19° |
| 2026-04-28 20:48 | -0.32950 | -78.35594 | 11791 ft | 221 kts | 19° |
| 2026-04-28 20:48 | -0.31493 | -78.35112 | 11483 ft | 219 kts | 19° |
| 2026-04-28 20:48 | -0.30033 | -78.34726 | 11185 ft | 217 kts | 7° |
| 2026-04-28 20:49 | -0.28527 | -78.34755 | 10885 ft | 215 kts | 357° |
| 2026-04-28 20:49 | -0.27080 | -78.34821 | 10602 ft | 190 kts | 359° |
| 2026-04-28 20:49 | -0.25885 | -78.34859 | 10339 ft | 156 kts | 359° |
| 2026-04-28 20:49 | -0.24891 | -78.34915 | 10136 ft | 131 kts | 358° |
| 2026-04-28 20:50 | -0.24039 | -78.34947 | 9962 ft | 115 kts | 359° |
| 2026-04-28 20:50 | -0.23273 | -78.34977 | 9816 ft | 105 kts | 358° |
| 2026-04-28 20:50 | -0.22572 | -78.35005 | 9668 ft | 99 kts | 360° |
| 2026-04-28 20:50 | -0.21879 | -78.35036 | 9526 ft | 103 kts | 358° |
| 2026-04-28 20:51 | -0.21157 | -78.35065 | 9378 ft | 103 kts | 359° |
| 2026-04-28 20:51 | -0.20444 | -78.35101 | 9233 ft | 103 kts | 358° |
| 2026-04-28 20:51 | -0.19716 | -78.35126 | 9090 ft | 105 kts | 360° |
| 2026-04-28 20:51 | -0.19225 | -78.35147 | 8987 ft | 105 kts | 358° |
| 2026-04-28 20:52 | -0.18252 | -78.35185 | 8785 ft | 105 kts | 0° |
| 2026-04-28 20:52 | -0.17524 | -78.35223 | 8636 ft | 104 kts | 358° |
| 2026-04-28 20:52 | -0.16804 | -78.35251 | 8492 ft | 104 kts | 359° |
| 2026-04-28 20:52 | -0.16090 | -78.35281 | 8344 ft | 102 kts | 356° |
| 2026-04-28 20:53 | -0.14720 | -78.35346 | 8131 ft | 96 kts | 358° |
| 2026-04-28 20:53 | -0.14055 | -78.35367 | 7985 ft | 97 kts | 358° |
| 2026-04-28 20:53 | -0.13449 | -78.35394 | 7983 ft | 74 kts | 358° |
| 2026-04-28 20:54 | -0.13004 | -78.35414 | 7983 ft | 55 kts | 357° |
| 2026-04-28 20:54 | -0.12700 | -78.35430 | 7983 ft | 36 kts | 351° |
| 2026-04-28 20:54 | -0.12505 | -78.35498 | 7980 ft | 18 kts | 328° |
| 2026-04-28 20:54 | -0.12431 | -78.35548 | 7988 ft | 8 kts | 312° |
| 2026-04-28 20:55 | -0.12429 | -78.35550 | 7979 ft | 0 kts | 310° |
| 2026-04-28 20:55 | -0.12428 | -78.35550 | 7979 ft | 2 kts | 310° |
| 2026-04-28 20:56 | -0.12443 | -78.35608 | 7983 ft | 16 kts | 191° |
| 2026-04-28 20:56 | -0.12546 | -78.35607 | 7979 ft | 14 kts | 178° |
| 2026-04-28 20:56 | -0.12637 | -78.35603 | 7983 ft | 12 kts | 172° |
| 2026-04-28 20:56 | -0.12716 | -78.35599 | 7979 ft | 11 kts | 182° |
| 2026-04-28 20:57 | -0.12785 | -78.35596 | 7979 ft | 9 kts | 176° |
| 2026-04-28 20:57 | -0.12847 | -78.35594 | 7979 ft | 8 kts | 177° |
| 2026-04-28 20:57 | -0.12900 | -78.35591 | 7979 ft | 7 kts | 176° |
| 2026-04-28 20:57 | -0.12946 | -78.35589 | 7979 ft | 6 kts | 181° |
| 2026-04-28 20:58 | -0.12984 | -78.35588 | 7979 ft | 5 kts | 175° |
| 2026-04-28 20:58 | -0.13018 | -78.35587 | 7979 ft | 5 kts | 177° |
| 2026-04-28 20:58 | -0.13054 | -78.35585 | 7985 ft | 6 kts | 175° |
| 2026-04-28 20:58 | -0.13094 | -78.35583 | 7979 ft | 6 kts | 178° |
| 2026-04-28 20:59 | -0.13146 | -78.35581 | 7980 ft | 9 kts | 176° |
| 2026-04-28 20:59 | -0.13214 | -78.35578 | 7979 ft | 11 kts | 176° |
| 2026-04-28 20:59 | -0.13298 | -78.35577 | 7979 ft | 13 kts | 175° |
| 2026-04-28 20:59 | -0.13398 | -78.35570 | 7979 ft | 16 kts | 180° |
| 2026-04-28 21:00 | -0.13459 | -78.35568 | 7978 ft | 9 kts | 175° |
| 2026-04-28 21:00 | -0.13531 | -78.35565 | 7978 ft | 11 kts | 178° |
| 2026-04-28 21:00 | -0.13575 | -78.35607 | 7978 ft | 4 kts | 267° |
| 2026-04-28 21:01 | -0.13576 | -78.35615 | 7982 ft | 5 kts | 244° |
| 2026-04-28 21:01 | -0.13639 | -78.35627 | 7981 ft | 11 kts | 178° |
| 2026-04-28 21:02 | -0.13679 | -78.35625 | 7978 ft | 0 kts | 176° |
| 2026-04-28 21:02 | -0.13683 | -78.35625 | 7978 ft | 2 kts | 176° |
| 2026-04-28 21:02 | -0.13689 | -78.35633 | 7978 ft | 3 kts | 301° |
| 2026-04-28 21:02 | -0.13689 | -78.35640 | 7978 ft | 2 kts | 264° |
| 2026-04-28 21:03 | -0.13689 | -78.35646 | 7978 ft | 0 kts | 264° |